sensor_id;sensor_type;location;lat;lon;timestamp;P1;durP1;ratioP1;P2;durP2;ratioP2
12760;SDS011;6444;49.742;6.114;2023-10-09T00:00:05;16.35;;;11.20;;
12760;SDS011;6444;49.742;6.114;2023-10-09T00:02:32;18.98;;;11.65;;
12760;SDS011;6444;49.742;6.114;2023-10-09T00:04:58;16.23;;;10.23;;
12760;SDS011;6444;49.742;6.114;2023-10-09T00:07:25;15.93;;;11.12;;
12760;SDS011;6444;49.742;6.114;2023-10-09T00:09:52;17.20;;;10.73;;
12760;SDS011;6444;49.742;6.114;2023-10-09T00:12:19;18.62;;;11.55;;
12760;SDS011;6444;49.742;6.114;2023-10-09T00:14:45;16.02;;;11.70;;
12760;SDS011;6444;49.742;6.114;2023-10-09T00:17:12;20.85;;;11.52;;
12760;SDS011;6444;49.742;6.114;2023-10-09T00:19:38;15.55;;;11.18;;
12760;SDS011;6444;49.742;6.114;2023-10-09T00:22:05;16.27;;;10.30;;
12760;SDS011;6444;49.742;6.114;2023-10-09T00:24:32;15.07;;;11.75;;
12760;SDS011;6444;49.742;6.114;2023-10-09T00:26:59;13.80;;;10.05;;
12760;SDS011;6444;49.742;6.114;2023-10-09T00:29:28;14.30;;;10.02;;
12760;SDS011;6444;49.742;6.114;2023-10-09T00:31:55;14.27;;;8.30;;
12760;SDS011;6444;49.742;6.114;2023-10-09T00:34:21;14.93;;;11.60;;
12760;SDS011;6444;49.742;6.114;2023-10-09T00:36:48;14.40;;;11.65;;
12760;SDS011;6444;49.742;6.114;2023-10-09T00:39:17;10.70;;;8.27;;
12760;SDS011;6444;49.742;6.114;2023-10-09T00:41:44;12.40;;;8.40;;
12760;SDS011;6444;49.742;6.114;2023-10-09T00:44:10;10.75;;;7.57;;
12760;SDS011;6444;49.742;6.114;2023-10-09T00:46:37;13.13;;;7.97;;
12760;SDS011;6444;49.742;6.114;2023-10-09T00:49:04;10.23;;;7.70;;
12760;SDS011;6444;49.742;6.114;2023-10-09T00:51:31;12.13;;;7.70;;
12760;SDS011;6444;49.742;6.114;2023-10-09T00:53:57;12.25;;;7.97;;
12760;SDS011;6444;49.742;6.114;2023-10-09T00:56:24;11.18;;;7.62;;
12760;SDS011;6444;49.742;6.114;2023-10-09T00:58:51;11.98;;;8.10;;
12760;SDS011;6444;49.742;6.114;2023-10-09T01:01:26;10.63;;;7.87;;
12760;SDS011;6444;49.742;6.114;2023-10-09T01:03:53;13.45;;;7.78;;
12760;SDS011;6444;49.742;6.114;2023-10-09T01:06:20;13.32;;;7.72;;
12760;SDS011;6444;49.742;6.114;2023-10-09T01:08:49;12.18;;;8.27;;
12760;SDS011;6444;49.742;6.114;2023-10-09T01:11:35;11.77;;;7.97;;
12760;SDS011;6444;49.742;6.114;2023-10-09T01:14:01;11.12;;;8.73;;
12760;SDS011;6444;49.742;6.114;2023-10-09T01:16:31;15.30;;;9.93;;
12760;SDS011;6444;49.742;6.114;2023-10-09T01:18:57;14.48;;;9.48;;
12760;SDS011;6444;49.742;6.114;2023-10-09T01:21:25;16.10;;;9.68;;
12760;SDS011;6444;49.742;6.114;2023-10-09T01:23:52;13.05;;;9.65;;
12760;SDS011;6444;49.742;6.114;2023-10-09T01:26:30;15.40;;;12.18;;
12760;SDS011;6444;49.742;6.114;2023-10-09T01:29:05;18.62;;;10.02;;
12760;SDS011;6444;49.742;6.114;2023-10-09T01:31:32;16.30;;;10.10;;
12760;SDS011;6444;49.742;6.114;2023-10-09T01:33:58;17.17;;;10.43;;
12760;SDS011;6444;49.742;6.114;2023-10-09T01:36:25;14.38;;;10.38;;
12760;SDS011;6444;49.742;6.114;2023-10-09T01:38:52;16.50;;;9.75;;
12760;SDS011;6444;49.742;6.114;2023-10-09T01:41:18;18.15;;;10.30;;
12760;SDS011;6444;49.742;6.114;2023-10-09T01:43:45;18.65;;;13.95;;
12760;SDS011;6444;49.742;6.114;2023-10-09T01:46:12;20.05;;;14.15;;
12760;SDS011;6444;49.742;6.114;2023-10-09T01:48:38;19.98;;;14.18;;
12760;SDS011;6444;49.742;6.114;2023-10-09T01:51:05;18.58;;;13.50;;
12760;SDS011;6444;49.742;6.114;2023-10-09T01:53:32;16.20;;;10.90;;
12760;SDS011;6444;49.742;6.114;2023-10-09T01:56:07;14.60;;;9.80;;
12760;SDS011;6444;49.742;6.114;2023-10-09T01:58:25;14.43;;;9.93;;
12760;SDS011;6444;49.742;6.114;2023-10-09T02:00:51;17.15;;;9.52;;
12760;SDS011;6444;49.742;6.114;2023-10-09T02:03:22;11.55;;;9.05;;
12760;SDS011;6444;49.742;6.114;2023-10-09T02:05:51;14.25;;;8.90;;
12760;SDS011;6444;49.742;6.114;2023-10-09T02:08:17;11.88;;;8.88;;
12760;SDS011;6444;49.742;6.114;2023-10-09T02:10:44;15.38;;;8.90;;
12760;SDS011;6444;49.742;6.114;2023-10-09T02:13:10;15.07;;;9.45;;
12760;SDS011;6444;49.742;6.114;2023-10-09T02:15:39;13.20;;;8.50;;
12760;SDS011;6444;49.742;6.114;2023-10-09T02:18:11;11.43;;;7.80;;
12760;SDS011;6444;49.742;6.114;2023-10-09T02:20:37;12.90;;;8.73;;
12760;SDS011;6444;49.742;6.114;2023-10-09T02:23:03;14.32;;;8.25;;
12760;SDS011;6444;49.742;6.114;2023-10-09T02:25:30;13.55;;;8.02;;
12760;SDS011;6444;49.742;6.114;2023-10-09T02:27:57;11.85;;;8.60;;
12760;SDS011;6444;49.742;6.114;2023-10-09T02:30:24;12.85;;;8.35;;
12760;SDS011;6444;49.742;6.114;2023-10-09T02:32:54;12.50;;;8.80;;
12760;SDS011;6444;49.742;6.114;2023-10-09T02:35:21;11.02;;;8.10;;
12760;SDS011;6444;49.742;6.114;2023-10-09T02:37:47;12.55;;;8.27;;
12760;SDS011;6444;49.742;6.114;2023-10-09T02:40:14;11.63;;;8.10;;
12760;SDS011;6444;49.742;6.114;2023-10-09T02:42:41;10.88;;;7.72;;
12760;SDS011;6444;49.742;6.114;2023-10-09T02:45:08;14.02;;;8.02;;
12760;SDS011;6444;49.742;6.114;2023-10-09T02:47:34;12.37;;;8.23;;
12760;SDS011;6444;49.742;6.114;2023-10-09T02:50:01;10.57;;;7.55;;
12760;SDS011;6444;49.742;6.114;2023-10-09T02:52:28;11.93;;;8.05;;
12760;SDS011;6444;49.742;6.114;2023-10-09T02:54:56;12.13;;;7.75;;
12760;SDS011;6444;49.742;6.114;2023-10-09T02:57:21;14.70;;;7.55;;
12760;SDS011;6444;49.742;6.114;2023-10-09T02:59:48;13.48;;;8.73;;
12760;SDS011;6444;49.742;6.114;2023-10-09T03:02:14;12.20;;;7.28;;
12760;SDS011;6444;49.742;6.114;2023-10-09T03:04:41;12.88;;;8.73;;
12760;SDS011;6444;49.742;6.114;2023-10-09T03:07:07;13.18;;;8.40;;
12760;SDS011;6444;49.742;6.114;2023-10-09T03:09:34;12.82;;;9.02;;
12760;SDS011;6444;49.742;6.114;2023-10-09T03:12:01;16.08;;;9.00;;
12760;SDS011;6444;49.742;6.114;2023-10-09T03:14:37;13.82;;;9.00;;
12760;SDS011;6444;49.742;6.114;2023-10-09T03:17:06;15.32;;;11.60;;
12760;SDS011;6444;49.742;6.114;2023-10-09T03:19:35;11.88;;;9.23;;
12760;SDS011;6444;49.742;6.114;2023-10-09T03:22:02;13.50;;;9.13;;
12760;SDS011;6444;49.742;6.114;2023-10-09T03:24:32;13.50;;;8.60;;
12760;SDS011;6444;49.742;6.114;2023-10-09T03:26:59;13.68;;;8.40;;
12760;SDS011;6444;49.742;6.114;2023-10-09T03:29:25;13.95;;;8.38;;
12760;SDS011;6444;49.742;6.114;2023-10-09T03:31:52;10.13;;;7.50;;
12760;SDS011;6444;49.742;6.114;2023-10-09T03:34:19;12.15;;;8.35;;
12760;SDS011;6444;49.742;6.114;2023-10-09T03:36:46;11.15;;;7.90;;
12760;SDS011;6444;49.742;6.114;2023-10-09T03:39:13;12.32;;;7.50;;
12760;SDS011;6444;49.742;6.114;2023-10-09T03:41:57;16.05;;;8.75;;
12760;SDS011;6444;49.742;6.114;2023-10-09T03:44:26;12.98;;;10.30;;
12760;SDS011;6444;49.742;6.114;2023-10-09T03:46:55;10.68;;;7.93;;
12760;SDS011;6444;49.742;6.114;2023-10-09T03:49:22;11.25;;;7.60;;
12760;SDS011;6444;49.742;6.114;2023-10-09T03:51:49;12.20;;;7.37;;
12760;SDS011;6444;49.742;6.114;2023-10-09T03:54:16;11.80;;;8.20;;
12760;SDS011;6444;49.742;6.114;2023-10-09T03:56:43;11.63;;;7.90;;
12760;SDS011;6444;49.742;6.114;2023-10-09T03:59:09;12.68;;;7.37;;
12760;SDS011;6444;49.742;6.114;2023-10-09T04:01:36;13.07;;;8.00;;
12760;SDS011;6444;49.742;6.114;2023-10-09T04:04:05;13.70;;;8.25;;
12760;SDS011;6444;49.742;6.114;2023-10-09T04:06:32;11.68;;;8.00;;
12760;SDS011;6444;49.742;6.114;2023-10-09T04:09:02;13.62;;;7.28;;
12760;SDS011;6444;49.742;6.114;2023-10-09T04:11:28;13.23;;;7.97;;
12760;SDS011;6444;49.742;6.114;2023-10-09T04:13:55;14.45;;;11.40;;
12760;SDS011;6444;49.742;6.114;2023-10-09T04:16:21;15.48;;;10.85;;
12760;SDS011;6444;49.742;6.114;2023-10-09T04:18:57;12.52;;;8.77;;
12760;SDS011;6444;49.742;6.114;2023-10-09T04:21:25;14.50;;;8.60;;
12760;SDS011;6444;49.742;6.114;2023-10-09T04:23:54;10.98;;;7.87;;
12760;SDS011;6444;49.742;6.114;2023-10-09T04:26:26;11.88;;;8.15;;
12760;SDS011;6444;49.742;6.114;2023-10-09T04:28:53;12.10;;;8.20;;
12760;SDS011;6444;49.742;6.114;2023-10-09T04:31:19;14.13;;;8.60;;
12760;SDS011;6444;49.742;6.114;2023-10-09T04:33:46;12.88;;;8.32;;
12760;SDS011;6444;49.742;6.114;2023-10-09T04:36:13;13.15;;;7.93;;
12760;SDS011;6444;49.742;6.114;2023-10-09T04:38:45;11.23;;;7.70;;
12760;SDS011;6444;49.742;6.114;2023-10-09T04:41:30;11.73;;;8.05;;
12760;SDS011;6444;49.742;6.114;2023-10-09T04:43:59;13.10;;;8.15;;
12760;SDS011;6444;49.742;6.114;2023-10-09T04:46:47;11.57;;;8.38;;
12760;SDS011;6444;49.742;6.114;2023-10-09T04:49:31;13.20;;;8.50;;
12760;SDS011;6444;49.742;6.114;2023-10-09T04:51:59;11.68;;;8.38;;
12760;SDS011;6444;49.742;6.114;2023-10-09T04:54:25;13.77;;;7.95;;
12760;SDS011;6444;49.742;6.114;2023-10-09T04:56:52;12.85;;;8.23;;
12760;SDS011;6444;49.742;6.114;2023-10-09T04:59:18;14.32;;;7.57;;
12760;SDS011;6444;49.742;6.114;2023-10-09T05:01:45;10.93;;;7.87;;
12760;SDS011;6444;49.742;6.114;2023-10-09T05:04:12;15.95;;;7.82;;
12760;SDS011;6444;49.742;6.114;2023-10-09T05:06:41;12.55;;;8.57;;
12760;SDS011;6444;49.742;6.114;2023-10-09T05:09:10;13.02;;;8.43;;
12760;SDS011;6444;49.742;6.114;2023-10-09T05:11:38;13.45;;;8.38;;
12760;SDS011;6444;49.742;6.114;2023-10-09T05:14:20;14.40;;;8.73;;
12760;SDS011;6444;49.742;6.114;2023-10-09T05:16:46;16.35;;;8.95;;
12760;SDS011;6444;49.742;6.114;2023-10-09T05:19:22;25.02;;;20.95;;
12760;SDS011;6444;49.742;6.114;2023-10-09T05:22:10;26.02;;;16.27;;
12760;SDS011;6444;49.742;6.114;2023-10-09T05:24:37;14.35;;;10.80;;
12760;SDS011;6444;49.742;6.114;2023-10-09T05:27:09;19.42;;;11.27;;
12760;SDS011;6444;49.742;6.114;2023-10-09T05:29:45;16.70;;;10.65;;
12760;SDS011;6444;49.742;6.114;2023-10-09T05:32:14;15.35;;;10.30;;
12760;SDS011;6444;49.742;6.114;2023-10-09T05:34:41;20.48;;;11.70;;
12760;SDS011;6444;49.742;6.114;2023-10-09T05:37:26;21.83;;;11.15;;
12760;SDS011;6444;49.742;6.114;2023-10-09T05:39:52;25.45;;;17.05;;
12760;SDS011;6444;49.742;6.114;2023-10-09T05:42:28;22.17;;;16.15;;
12760;SDS011;6444;49.742;6.114;2023-10-09T05:45:06;22.73;;;13.73;;
12760;SDS011;6444;49.742;6.114;2023-10-09T05:47:51;19.52;;;12.07;;
12760;SDS011;6444;49.742;6.114;2023-10-09T05:50:17;19.33;;;12.57;;
12760;SDS011;6444;49.742;6.114;2023-10-09T05:52:44;20.23;;;12.27;;
12760;SDS011;6444;49.742;6.114;2023-10-09T05:55:20;17.40;;;12.45;;
12760;SDS011;6444;49.742;6.114;2023-10-09T05:57:46;19.23;;;12.25;;
12760;SDS011;6444;49.742;6.114;2023-10-09T06:00:22;23.50;;;12.05;;
12760;SDS011;6444;49.742;6.114;2023-10-09T06:03:06;22.08;;;14.32;;
12760;SDS011;6444;49.742;6.114;2023-10-09T06:05:48;19.73;;;13.02;;
12760;SDS011;6444;49.742;6.114;2023-10-09T06:08:20;21.77;;;13.38;;
12760;SDS011;6444;49.742;6.114;2023-10-09T06:10:53;17.70;;;13.57;;
12760;SDS011;6444;49.742;6.114;2023-10-09T06:13:37;21.58;;;13.93;;
12760;SDS011;6444;49.742;6.114;2023-10-09T06:16:04;20.75;;;13.20;;
12760;SDS011;6444;49.742;6.114;2023-10-09T06:18:46;21.35;;;14.45;;
12760;SDS011;6444;49.742;6.114;2023-10-09T06:21:12;21.98;;;12.85;;
12760;SDS011;6444;49.742;6.114;2023-10-09T06:23:55;22.40;;;15.60;;
12760;SDS011;6444;49.742;6.114;2023-10-09T06:26:36;21.62;;;12.60;;
12760;SDS011;6444;49.742;6.114;2023-10-09T06:29:03;21.20;;;13.50;;
12760;SDS011;6444;49.742;6.114;2023-10-09T06:31:41;17.05;;;12.13;;
12760;SDS011;6444;49.742;6.114;2023-10-09T06:34:23;17.42;;;10.95;;
12760;SDS011;6444;49.742;6.114;2023-10-09T06:36:50;17.17;;;11.15;;
12760;SDS011;6444;49.742;6.114;2023-10-09T06:39:19;16.77;;;10.55;;
12760;SDS011;6444;49.742;6.114;2023-10-09T06:42:04;17.10;;;11.07;;
12760;SDS011;6444;49.742;6.114;2023-10-09T06:44:37;16.60;;;11.30;;
12760;SDS011;6444;49.742;6.114;2023-10-09T06:47:19;15.45;;;10.57;;
12760;SDS011;6444;49.742;6.114;2023-10-09T06:49:45;17.23;;;11.02;;
12760;SDS011;6444;49.742;6.114;2023-10-09T06:52:12;18.45;;;11.38;;
12760;SDS011;6444;49.742;6.114;2023-10-09T06:54:41;18.85;;;11.25;;
12760;SDS011;6444;49.742;6.114;2023-10-09T06:57:08;16.17;;;10.50;;
12760;SDS011;6444;49.742;6.114;2023-10-09T06:59:41;17.95;;;11.63;;
12760;SDS011;6444;49.742;6.114;2023-10-09T07:02:07;20.67;;;11.40;;
12760;SDS011;6444;49.742;6.114;2023-10-09T07:04:37;16.65;;;10.60;;
12760;SDS011;6444;49.742;6.114;2023-10-09T07:07:04;19.77;;;11.30;;
12760;SDS011;6444;49.742;6.114;2023-10-09T07:09:33;14.13;;;11.40;;
12760;SDS011;6444;49.742;6.114;2023-10-09T07:12:09;15.93;;;10.25;;
12760;SDS011;6444;49.742;6.114;2023-10-09T07:14:36;13.95;;;10.15;;
12760;SDS011;6444;49.742;6.114;2023-10-09T07:17:08;18.37;;;11.55;;
12760;SDS011;6444;49.742;6.114;2023-10-09T07:19:50;23.10;;;13.90;;
12760;SDS011;6444;49.742;6.114;2023-10-09T07:22:16;14.68;;;9.52;;
12760;SDS011;6444;49.742;6.114;2023-10-09T07:24:49;14.30;;;9.43;;
12760;SDS011;6444;49.742;6.114;2023-10-09T07:27:30;12.05;;;8.48;;
12760;SDS011;6444;49.742;6.114;2023-10-09T07:30:09;14.15;;;8.90;;
12760;SDS011;6444;49.742;6.114;2023-10-09T07:32:54;11.55;;;8.55;;
12760;SDS011;6444;49.742;6.114;2023-10-09T07:35:20;10.57;;;7.78;;
12760;SDS011;6444;49.742;6.114;2023-10-09T07:37:52;13.50;;;8.77;;
12760;SDS011;6444;49.742;6.114;2023-10-09T07:40:19;22.02;;;13.98;;
12760;SDS011;6444;49.742;6.114;2023-10-09T07:42:45;12.37;;;8.95;;
12760;SDS011;6444;49.742;6.114;2023-10-09T07:45:12;11.35;;;7.82;;
12760;SDS011;6444;49.742;6.114;2023-10-09T07:47:39;11.02;;;7.10;;
12760;SDS011;6444;49.742;6.114;2023-10-09T07:50:24;10.32;;;6.75;;
12760;SDS011;6444;49.742;6.114;2023-10-09T07:52:51;8.70;;;6.10;;
12760;SDS011;6444;49.742;6.114;2023-10-09T07:55:17;8.63;;;6.43;;
12760;SDS011;6444;49.742;6.114;2023-10-09T07:57:53;10.73;;;6.05;;
12760;SDS011;6444;49.742;6.114;2023-10-09T08:00:19;9.60;;;6.45;;
12760;SDS011;6444;49.742;6.114;2023-10-09T08:03:04;11.63;;;6.05;;
12760;SDS011;6444;49.742;6.114;2023-10-09T08:05:31;8.90;;;5.50;;
12760;SDS011;6444;49.742;6.114;2023-10-09T08:08:01;10.48;;;5.40;;
12760;SDS011;6444;49.742;6.114;2023-10-09T08:10:29;8.98;;;5.28;;
12760;SDS011;6444;49.742;6.114;2023-10-09T08:12:56;10.93;;;5.45;;
12760;SDS011;6444;49.742;6.114;2023-10-09T08:15:25;8.10;;;5.18;;
12760;SDS011;6444;49.742;6.114;2023-10-09T08:18:01;8.40;;;5.07;;
12760;SDS011;6444;49.742;6.114;2023-10-09T08:20:37;8.93;;;5.80;;
12760;SDS011;6444;49.742;6.114;2023-10-09T08:23:21;11.82;;;5.60;;
12760;SDS011;6444;49.742;6.114;2023-10-09T08:25:48;9.10;;;5.37;;
12760;SDS011;6444;49.742;6.114;2023-10-09T08:28:23;7.60;;;5.47;;
12760;SDS011;6444;49.742;6.114;2023-10-09T08:30:50;7.87;;;6.72;;
12760;SDS011;6444;49.742;6.114;2023-10-09T08:33:17;9.90;;;6.50;;
12760;SDS011;6444;49.742;6.114;2023-10-09T08:35:55;11.45;;;5.47;;
12760;SDS011;6444;49.742;6.114;2023-10-09T08:38:21;8.40;;;5.95;;
12760;SDS011;6444;49.742;6.114;2023-10-09T08:40:51;9.88;;;5.95;;
12760;SDS011;6444;49.742;6.114;2023-10-09T08:43:18;12.13;;;6.85;;
12760;SDS011;6444;49.742;6.114;2023-10-09T08:45:53;8.15;;;6.05;;
12760;SDS011;6444;49.742;6.114;2023-10-09T08:48:20;9.40;;;6.07;;
12760;SDS011;6444;49.742;6.114;2023-10-09T08:50:47;9.57;;;5.90;;
12760;SDS011;6444;49.742;6.114;2023-10-09T08:53:16;10.63;;;6.03;;
12760;SDS011;6444;49.742;6.114;2023-10-09T08:55:42;8.57;;;6.57;;
12760;SDS011;6444;49.742;6.114;2023-10-09T08:58:09;7.93;;;5.93;;
12760;SDS011;6444;49.742;6.114;2023-10-09T09:00:48;10.18;;;6.32;;
12760;SDS011;6444;49.742;6.114;2023-10-09T09:03:15;11.05;;;6.22;;
12760;SDS011;6444;49.742;6.114;2023-10-09T09:05:43;10.25;;;5.95;;
12760;SDS011;6444;49.742;6.114;2023-10-09T09:08:20;12.32;;;5.93;;
12760;SDS011;6444;49.742;6.114;2023-10-09T09:10:35;10.85;;;7.00;;
12760;SDS011;6444;49.742;6.114;2023-10-09T09:13:02;13.52;;;7.65;;
12760;SDS011;6444;49.742;6.114;2023-10-09T09:15:29;11.93;;;6.37;;
12760;SDS011;6444;49.742;6.114;2023-10-09T09:18:04;8.10;;;5.70;;
12760;SDS011;6444;49.742;6.114;2023-10-09T09:20:33;8.15;;;4.60;;
12760;SDS011;6444;49.742;6.114;2023-10-09T09:23:00;9.00;;;5.05;;
12760;SDS011;6444;49.742;6.114;2023-10-09T09:25:39;8.77;;;5.18;;
12760;SDS011;6444;49.742;6.114;2023-10-09T09:27:53;7.22;;;5.20;;
12760;SDS011;6444;49.742;6.114;2023-10-09T09:30:23;7.40;;;5.47;;
12760;SDS011;6444;49.742;6.114;2023-10-09T09:32:49;11.23;;;4.78;;
12760;SDS011;6444;49.742;6.114;2023-10-09T09:35:15;7.73;;;5.20;;
12760;SDS011;6444;49.742;6.114;2023-10-09T09:37:52;8.50;;;4.72;;
12760;SDS011;6444;49.742;6.114;2023-10-09T09:40:18;7.68;;;5.15;;
12760;SDS011;6444;49.742;6.114;2023-10-09T09:42:55;6.03;;;4.62;;
12760;SDS011;6444;49.742;6.114;2023-10-09T09:45:20;8.18;;;4.80;;
12760;SDS011;6444;49.742;6.114;2023-10-09T09:47:47;7.35;;;5.40;;
12760;SDS011;6444;49.742;6.114;2023-10-09T09:50:14;7.85;;;5.22;;
12760;SDS011;6444;49.742;6.114;2023-10-09T09:52:40;6.00;;;4.47;;
12760;SDS011;6444;49.742;6.114;2023-10-09T09:55:10;8.27;;;4.30;;
12760;SDS011;6444;49.742;6.114;2023-10-09T09:57:44;8.15;;;4.62;;
12760;SDS011;6444;49.742;6.114;2023-10-09T10:00:10;6.07;;;5.00;;
12760;SDS011;6444;49.742;6.114;2023-10-09T10:02:37;10.07;;;4.10;;
12760;SDS011;6444;49.742;6.114;2023-10-09T10:05:05;5.93;;;4.22;;
12760;SDS011;6444;49.742;6.114;2023-10-09T10:07:30;6.97;;;4.60;;
12760;SDS011;6444;49.742;6.114;2023-10-09T10:09:57;9.32;;;4.55;;
12760;SDS011;6444;49.742;6.114;2023-10-09T10:18:24;6.60;;;4.37;;
12760;SDS011;6444;49.742;6.114;2023-10-09T10:21:09;5.87;;;4.07;;
12760;SDS011;6444;49.742;6.114;2023-10-09T10:23:42;6.87;;;4.30;;
12760;SDS011;6444;49.742;6.114;2023-10-09T10:26:18;8.38;;;4.68;;
12760;SDS011;6444;49.742;6.114;2023-10-09T10:29:12;6.65;;;3.92;;
12760;SDS011;6444;49.742;6.114;2023-10-09T10:31:13;8.20;;;4.18;;
12760;SDS011;6444;49.742;6.114;2023-10-09T10:34:03;5.75;;;4.22;;
12760;SDS011;6444;49.742;6.114;2023-10-09T10:36:21;8.40;;;4.93;;
12760;SDS011;6444;49.742;6.114;2023-10-09T10:39:03;9.77;;;6.75;;
12760;SDS011;6444;49.742;6.114;2023-10-09T10:41:32;9.13;;;4.10;;
12760;SDS011;6444;49.742;6.114;2023-10-09T10:44:03;6.20;;;3.90;;
12760;SDS011;6444;49.742;6.114;2023-10-09T10:46:41;6.50;;;4.32;;
12760;SDS011;6444;49.742;6.114;2023-10-09T10:49:09;7.60;;;3.97;;
12760;SDS011;6444;49.742;6.114;2023-10-09T10:51:38;8.68;;;4.62;;
12760;SDS011;6444;49.742;6.114;2023-10-09T10:54:08;6.32;;;3.90;;
12760;SDS011;6444;49.742;6.114;2023-10-09T10:56:43;7.87;;;4.15;;
12760;SDS011;6444;49.742;6.114;2023-10-09T10:59:10;6.07;;;3.83;;
12760;SDS011;6444;49.742;6.114;2023-10-09T11:01:37;7.57;;;4.50;;
12760;SDS011;6444;49.742;6.114;2023-10-09T11:04:19;8.73;;;4.97;;
12760;SDS011;6444;49.742;6.114;2023-10-09T11:06:46;7.43;;;4.93;;
12760;SDS011;6444;49.742;6.114;2023-10-09T11:09:12;5.87;;;4.55;;
12760;SDS011;6444;49.742;6.114;2023-10-09T11:11:48;7.30;;;4.62;;
12760;SDS011;6444;49.742;6.114;2023-10-09T11:14:14;8.10;;;4.82;;
12760;SDS011;6444;49.742;6.114;2023-10-09T11:16:41;6.40;;;3.72;;
12760;SDS011;6444;49.742;6.114;2023-10-09T11:19:11;7.68;;;4.70;;
12760;SDS011;6444;49.742;6.114;2023-10-09T11:21:53;7.57;;;4.03;;
12760;SDS011;6444;49.742;6.114;2023-10-09T11:24:32;7.55;;;3.87;;
12760;SDS011;6444;49.742;6.114;2023-10-09T11:27:01;6.43;;;4.12;;
12760;SDS011;6444;49.742;6.114;2023-10-09T11:29:27;7.55;;;4.03;;
12760;SDS011;6444;49.742;6.114;2023-10-09T11:32:03;7.25;;;4.57;;
12760;SDS011;6444;49.742;6.114;2023-10-09T11:34:29;7.18;;;4.15;;
12760;SDS011;6444;49.742;6.114;2023-10-09T11:36:57;8.05;;;4.80;;
12760;SDS011;6444;49.742;6.114;2023-10-09T11:39:27;6.62;;;3.72;;
12760;SDS011;6444;49.742;6.114;2023-10-09T11:42:02;5.68;;;3.37;;
12760;SDS011;6444;49.742;6.114;2023-10-09T11:44:41;6.32;;;4.00;;
12760;SDS011;6444;49.742;6.114;2023-10-09T11:47:07;5.18;;;3.65;;
12760;SDS011;6444;49.742;6.114;2023-10-09T11:50:18;7.90;;;3.55;;
12760;SDS011;6444;49.742;6.114;2023-10-09T11:52:23;5.43;;;3.42;;
12760;SDS011;6444;49.742;6.114;2023-10-09T11:57:24;7.87;;;4.10;;
12760;SDS011;6444;49.742;6.114;2023-10-09T11:59:51;5.75;;;3.72;;
12760;SDS011;6444;49.742;6.114;2023-10-09T12:02:20;8.40;;;3.97;;
12760;SDS011;6444;49.742;6.114;2023-10-09T12:04:47;6.50;;;3.95;;
12760;SDS011;6444;49.742;6.114;2023-10-09T12:07:14;5.68;;;4.20;;
12760;SDS011;6444;49.742;6.114;2023-10-09T12:09:41;8.25;;;3.87;;
12760;SDS011;6444;49.742;6.114;2023-10-09T12:12:08;7.47;;;4.28;;
12760;SDS011;6444;49.742;6.114;2023-10-09T12:14:34;8.18;;;3.90;;
12760;SDS011;6444;49.742;6.114;2023-10-09T12:17:01;7.20;;;3.87;;
12760;SDS011;6444;49.742;6.114;2023-10-09T12:19:28;5.80;;;3.95;;
12760;SDS011;6444;49.742;6.114;2023-10-09T12:21:55;4.87;;;3.72;;
12760;SDS011;6444;49.742;6.114;2023-10-09T12:24:22;5.68;;;3.75;;
12760;SDS011;6444;49.742;6.114;2023-10-09T12:26:48;5.55;;;3.60;;
12760;SDS011;6444;49.742;6.114;2023-10-09T12:29:15;7.15;;;4.05;;
12760;SDS011;6444;49.742;6.114;2023-10-09T12:31:42;6.53;;;4.07;;
12760;SDS011;6444;49.742;6.114;2023-10-09T12:34:08;7.70;;;4.68;;
12760;SDS011;6444;49.742;6.114;2023-10-09T12:38:29;7.12;;;4.22;;
12760;SDS011;6444;49.742;6.114;2023-10-09T12:41:04;4.97;;;3.53;;
12760;SDS011;6444;49.742;6.114;2023-10-09T12:43:30;7.75;;;4.18;;
12760;SDS011;6444;49.742;6.114;2023-10-09T12:45:57;5.43;;;3.62;;
12760;SDS011;6444;49.742;6.114;2023-10-09T12:48:23;8.93;;;4.15;;
12760;SDS011;6444;49.742;6.114;2023-10-09T12:50:50;5.65;;;3.28;;
12760;SDS011;6444;49.742;6.114;2023-10-09T12:53:17;6.57;;;3.65;;
12760;SDS011;6444;49.742;6.114;2023-10-09T12:55:43;6.40;;;3.95;;
12760;SDS011;6444;49.742;6.114;2023-10-09T12:58:10;6.93;;;4.00;;
12760;SDS011;6444;49.742;6.114;2023-10-09T13:00:37;6.22;;;3.90;;
12760;SDS011;6444;49.742;6.114;2023-10-09T13:03:08;7.37;;;4.28;;
12760;SDS011;6444;49.742;6.114;2023-10-09T13:05:49;5.97;;;3.78;;
12760;SDS011;6444;49.742;6.114;2023-10-09T13:08:24;8.65;;;4.40;;
12760;SDS011;6444;49.742;6.114;2023-10-09T13:11:03;6.30;;;3.45;;
12760;SDS011;6444;49.742;6.114;2023-10-09T13:13:29;6.22;;;3.60;;
12760;SDS011;6444;49.742;6.114;2023-10-09T13:16:14;3.85;;;3.15;;
12760;SDS011;6444;49.742;6.114;2023-10-09T13:18:49;5.45;;;3.45;;
12760;SDS011;6444;49.742;6.114;2023-10-09T13:21:17;5.35;;;3.90;;
12760;SDS011;6444;49.742;6.114;2023-10-09T13:23:43;4.20;;;3.05;;
12760;SDS011;6444;49.742;6.114;2023-10-09T13:26:10;5.72;;;3.55;;
12760;SDS011;6444;49.742;6.114;2023-10-09T13:28:45;9.98;;;3.62;;
12760;SDS011;6444;49.742;6.114;2023-10-09T13:31:15;4.85;;;3.72;;
12760;SDS011;6444;49.742;6.114;2023-10-09T13:33:41;6.12;;;3.70;;
12760;SDS011;6444;49.742;6.114;2023-10-09T13:36:09;6.57;;;3.62;;
12760;SDS011;6444;49.742;6.114;2023-10-09T13:38:54;3.60;;;3.22;;
12760;SDS011;6444;49.742;6.114;2023-10-09T13:41:21;6.65;;;3.80;;
12760;SDS011;6444;49.742;6.114;2023-10-09T13:43:47;6.72;;;3.67;;
12760;SDS011;6444;49.742;6.114;2023-10-09T13:46:14;6.32;;;3.90;;
12760;SDS011;6444;49.742;6.114;2023-10-09T13:48:40;7.65;;;4.05;;
12760;SDS011;6444;49.742;6.114;2023-10-09T13:51:08;6.60;;;3.72;;
12760;SDS011;6444;49.742;6.114;2023-10-09T13:53:34;6.45;;;3.58;;
12760;SDS011;6444;49.742;6.114;2023-10-09T13:56:04;8.05;;;4.80;;
12760;SDS011;6444;49.742;6.114;2023-10-09T13:58:30;7.65;;;5.35;;
12760;SDS011;6444;49.742;6.114;2023-10-09T14:00:57;7.70;;;3.85;;
12760;SDS011;6444;49.742;6.114;2023-10-09T14:03:24;7.75;;;4.05;;
12760;SDS011;6444;49.742;6.114;2023-10-09T14:05:50;6.87;;;4.28;;
12760;SDS011;6444;49.742;6.114;2023-10-09T14:08:23;6.87;;;3.42;;
12760;SDS011;6444;49.742;6.114;2023-10-09T14:10:50;4.28;;;3.42;;
12760;SDS011;6444;49.742;6.114;2023-10-09T14:13:17;4.97;;;3.67;;
12760;SDS011;6444;49.742;6.114;2023-10-09T14:15:43;6.20;;;4.20;;
12760;SDS011;6444;49.742;6.114;2023-10-09T14:18:11;5.95;;;3.90;;
12760;SDS011;6444;49.742;6.114;2023-10-09T14:20:38;7.72;;;4.28;;
12760;SDS011;6444;49.742;6.114;2023-10-09T14:23:04;6.07;;;3.70;;
12760;SDS011;6444;49.742;6.114;2023-10-09T14:25:33;7.30;;;3.90;;
12760;SDS011;6444;49.742;6.114;2023-10-09T14:28:00;5.32;;;3.70;;
12760;SDS011;6444;49.742;6.114;2023-10-09T14:30:27;6.95;;;4.07;;
12760;SDS011;6444;49.742;6.114;2023-10-09T14:32:57;6.90;;;4.10;;
12760;SDS011;6444;49.742;6.114;2023-10-09T14:35:23;6.55;;;4.45;;
12760;SDS011;6444;49.742;6.114;2023-10-09T14:37:50;6.35;;;3.92;;
12760;SDS011;6444;49.742;6.114;2023-10-09T14:40:16;9.18;;;3.75;;
12760;SDS011;6444;49.742;6.114;2023-10-09T14:42:43;5.68;;;3.62;;
12760;SDS011;6444;49.742;6.114;2023-10-09T14:45:11;8.45;;;4.62;;
12760;SDS011;6444;49.742;6.114;2023-10-09T14:47:37;5.05;;;3.62;;
12760;SDS011;6444;49.742;6.114;2023-10-09T14:50:04;6.62;;;4.55;;
12760;SDS011;6444;49.742;6.114;2023-10-09T14:52:31;6.97;;;4.22;;
12760;SDS011;6444;49.742;6.114;2023-10-09T14:54:58;8.25;;;4.00;;
12760;SDS011;6444;49.742;6.114;2023-10-09T14:57:24;5.10;;;3.58;;
12760;SDS011;6444;49.742;6.114;2023-10-09T14:59:52;5.53;;;4.20;;
12760;SDS011;6444;49.742;6.114;2023-10-09T15:02:18;6.57;;;4.18;;
12760;SDS011;6444;49.742;6.114;2023-10-09T15:04:47;5.57;;;3.58;;
12760;SDS011;6444;49.742;6.114;2023-10-09T15:07:13;5.65;;;3.50;;
12760;SDS011;6444;49.742;6.114;2023-10-09T15:09:40;5.75;;;4.50;;
12760;SDS011;6444;49.742;6.114;2023-10-09T15:12:07;7.62;;;3.97;;
12760;SDS011;6444;49.742;6.114;2023-10-09T15:14:33;5.75;;;3.70;;